Time;durP1;ratioP1;P1;durP2;ratioP2;P2;SDS_P1;SDS_P2;PMS_P1;PMS_P2;Temp;Humidity;BMP_temperature;BMP_pressure;BME280_temperature;BME280_humidity;BME280_pressure;Samples;Min_cycle;Max_cycle;Signal;HPM_P1;HPM_P2
2023/01/11 00:00:36;;;;;;;;;;;9.20;99.90;;;;;;2024965;29;19951;-70
2023/01/11 00:01:36;;;;;;;;;;;9.20;99.90;;;;;;2023578;29;19919;-70
2023/01/11 00:02:37;;;;;;;;;;;9.30;99.90;;;;;;2023874;29;19916;-70
2023/01/11 00:03:37;;;;;;;;;;;9.30;99.90;;;;;;2024910;29;20398;-70
2023/01/11 00:04:38;;;;;;;;;;;9.30;99.90;;;;;;2024559;29;19922;-70
2023/01/11 00:05:39;;;;;;;;;;;9.30;99.90;;;;;;2024106;29;19915;-69
2023/01/11 00:06:39;;;;;;;;;;;9.30;99.90;;;;;;2025720;29;19915;-69
2023/01/11 00:07:40;;;;;;;;;;;9.30;99.90;;;;;;2025238;29;19911;-70
2023/01/11 00:08:40;;;;;;;;;;;9.30;99.90;;;;;;2023602;29;19907;-70
2023/01/11 00:09:41;;;;;;;;;;;9.30;99.90;;;;;;2025744;29;20288;-70
2023/01/11 00:10:41;;;;;;;;;;;9.30;99.90;;;;;;2025160;29;19915;-70
2023/01/11 00:11:42;;;;;;;;;;;9.30;99.90;;;;;;2024568;29;19911;-70
2023/01/11 00:12:42;;;;;;;;;;;9.30;99.90;;;;;;2024111;29;20356;-70
2023/01/11 00:13:46;;;;;;;;;;;9.40;99.90;;;;;;2031656;29;19910;-70
2023/01/11 00:14:46;;;;;;;;;;;9.40;99.90;;;;;;2031408;29;20318;-70
2023/01/11 00:15:47;;;;;;;;;;;9.40;99.90;;;;;;2025798;29;19930;-70
2023/01/11 00:16:47;;;;;;;;;;;9.40;99.90;;;;;;2026698;29;19907;-70
2023/01/11 00:17:48;;;;;;;;;;;9.40;99.90;;;;;;2025183;29;19907;-70
2023/01/11 00:18:48;;;;;;;;;;;9.40;99.90;;;;;;2023600;29;19938;-69
2023/01/11 00:19:49;;;;;;;;;;;9.40;99.90;;;;;;2024592;29;19926;-69
2023/01/11 00:20:49;;;;;;;;;;;9.40;99.90;;;;;;2024683;29;19911;-70
2023/01/11 00:21:49;;;;;;;;;;;9.50;99.90;;;;;;2024078;29;19915;-70
2023/01/11 00:22:50;;;;;;;;;;;9.50;99.90;;;;;;2025129;29;20390;-70
2023/01/11 00:23:51;;;;;;;;;;;9.50;99.90;;;;;;2023784;29;20312;-70
2023/01/11 00:24:51;;;;;;;;;;;9.50;99.90;;;;;;2023992;29;20420;-70
2023/01/11 00:25:51;;;;;;;;;;;9.50;99.90;;;;;;2024293;29;19943;-70
2023/01/11 00:26:52;;;;;;;;;;;9.50;99.90;;;;;;2022967;29;19923;-69
2023/01/11 00:27:53;;;;;;;;;;;9.50;99.90;;;;;;2024760;29;19912;-69
2023/01/11 00:28:53;;;;;;;;;;;9.50;99.90;;;;;;2026374;29;19931;-70
2023/01/11 00:29:53;;;;;;;;;;;9.50;99.90;;;;;;2024291;29;19962;-70
2023/01/11 00:30:54;;;;;;;;;;;9.50;99.90;;;;;;2023804;29;19915;-70
2023/01/11 00:31:54;;;;;;;;;;;9.50;99.90;;;;;;2026339;29;19919;-70
2023/01/11 00:32:55;;;;;;;;;;;9.60;99.90;;;;;;2025688;29;19967;-70
2023/01/11 00:33:56;;;;;;;;;;;9.60;99.90;;;;;;2024925;29;19975;-70
2023/01/11 00:34:56;;;;;;;;;;;9.60;99.90;;;;;;2024736;29;19971;-70
2023/01/11 00:35:57;;;;;;;;;;;9.50;99.90;;;;;;2024632;29;20296;-70
2023/01/11 00:36:57;;;;;;;;;;;9.60;99.90;;;;;;2023848;29;19998;-70
2023/01/11 00:37:58;;;;;;;;;;;9.60;99.90;;;;;;2023056;29;19914;-70
2023/01/11 00:38:59;;;;;;;;;;;9.60;99.90;;;;;;2024477;29;19931;-69
2023/01/11 00:40:00;;;;;;;;;;;9.60;99.90;;;;;;2024596;29;20637;-70
2023/01/11 00:47:55;;;;;;;;;;;9.60;99.90;;;;;;2022325;29;20710;-70
2023/01/11 00:47:56;;;;;;;;;;;9.60;99.90;;;;;;2024711;29;19919;-70
2023/01/11 00:48:56;;;;;;;;;;;9.70;99.90;;;;;;2024505;29;19918;-70
2023/01/11 00:49:57;;;;;;;;;;;9.70;99.90;;;;;;2025189;29;19922;-69
2023/01/11 00:50:58;;;;;;;;;;;9.70;99.90;;;;;;2022990;29;19907;-69
2023/01/11 00:51:58;;;;;;;;;;;9.70;99.90;;;;;;2025475;29;19954;-70
2023/01/11 00:52:59;;;;;;;;;;;9.70;99.90;;;;;;2025481;29;20378;-70
2023/01/11 00:53:59;;;;;;;;;;;9.70;99.90;;;;;;2024967;29;19998;-70
2023/01/11 00:55:00;;;;;;;;;;;9.70;99.90;;;;;;2022523;29;20420;-70
2023/01/11 00:56:00;;;;;;;;;;;9.70;99.90;;;;;;2023024;29;19919;-70
2023/01/11 00:57:01;;;;;;;;;;;9.70;99.90;;;;;;2019295;29;19936;-70
2023/01/11 00:58:01;;;;;;;;;;;9.70;99.90;;;;;;2019475;29;19912;-70
2023/01/11 00:59:03;;;;;;;;;;;9.70;99.90;;;;;;2022660;29;20682;-70
2023/01/11 01:00:04;;;;;;;;;;;9.80;99.90;;;;;;2026187;29;19947;-70
2023/01/11 01:01:05;;;;;;;;;;;9.70;99.90;;;;;;2024849;29;19934;-70
2023/01/11 01:02:06;;;;;;;;;;;9.80;99.90;;;;;;2025498;29;19919;-70
2023/01/11 01:03:07;;;;;;;;;;;9.80;99.90;;;;;;2023938;29;19915;-70
2023/01/11 01:04:07;;;;;;;;;;;9.80;99.90;;;;;;2025750;29;20002;-70
2023/01/11 01:05:08;;;;;;;;;;;9.80;99.90;;;;;;2024084;29;19911;-70
2023/01/11 01:06:08;;;;;;;;;;;9.80;99.90;;;;;;2025619;29;19962;-70
2023/01/11 01:07:10;;;;;;;;;;;9.80;99.90;;;;;;2025921;29;19965;-70
2023/01/11 01:08:11;;;;;;;;;;;9.90;99.90;;;;;;2025323;29;20256;-70
2023/01/11 01:09:11;;;;;;;;;;;9.90;99.90;;;;;;2024365;29;19911;-70
2023/01/11 01:10:13;;;;;;;;;;;9.80;99.90;;;;;;2025465;29;20511;-69
2023/01/11 01:11:13;;;;;;;;;;;9.90;99.90;;;;;;2026691;29;20411;-69
2023/01/11 01:14:24;;;;;;;;;;;9.90;99.90;;;;;;2028942;29;19987;-70
2023/01/11 01:14:53;;;;;;;;;;;9.90;99.90;;;;;;2026666;29;19907;-70
2023/01/11 01:15:57;;;;;;;;;;;9.90;99.90;;;;;;2025178;29;20002;-69
2023/01/11 01:17:00;;;;;;;;;;;9.90;99.90;;;;;;2024451;29;19918;-70
2023/01/11 01:18:00;;;;;;;;;;;9.90;99.90;;;;;;2025871;29;20359;-70
2023/01/11 01:19:01;;;;;;;;;;;10.00;99.90;;;;;;2021812;29;20056;-70
2023/01/11 01:20:02;;;;;;;;;;;10.00;99.90;;;;;;2026084;29;19938;-70
2023/01/11 01:21:02;;;;;;;;;;;10.00;99.90;;;;;;2025414;29;19912;-70
2023/01/11 01:22:03;;;;;;;;;;;10.00;99.90;;;;;;2026905;29;19967;-70
2023/01/11 01:23:03;;;;;;;;;;;10.00;99.90;;;;;;2025702;29;19915;-70
2023/01/11 01:24:04;;;;;;;;;;;10.00;99.90;;;;;;2027209;29;19918;-70
2023/01/11 01:25:04;;;;;;;;;;;10.10;99.90;;;;;;2027174;29;20320;-70
2023/01/11 01:26:05;;;;;;;;;;;10.00;99.90;;;;;;2025870;29;19946;-70
2023/01/11 01:27:06;;;;;;;;;;;10.00;99.90;;;;;;2026135;29;20431;-70
2023/01/11 01:28:06;;;;;;;;;;;10.10;99.90;;;;;;2027300;29;19907;-70
2023/01/11 01:29:07;;;;;;;;;;;10.10;99.90;;;;;;2024863;29;19912;-70
2023/01/11 01:30:08;;;;;;;;;;;10.10;99.90;;;;;;2027625;29;19915;-70
2023/01/11 01:31:09;;;;;;;;;;;10.10;99.90;;;;;;2027420;29;19986;-70
2023/01/11 01:32:09;;;;;;;;;;;10.10;99.90;;;;;;2025851;29;19936;-70
2023/01/11 01:33:09;;;;;;;;;;;10.10;99.90;;;;;;2024953;29;19938;-70
2023/01/11 01:34:11;;;;;;;;;;;10.10;99.90;;;;;;2026414;29;20351;-70
2023/01/11 01:35:11;;;;;;;;;;;10.10;99.90;;;;;;2026611;29;19911;-70
2023/01/11 01:36:12;;;;;;;;;;;10.20;99.90;;;;;;2026668;29;20387;-70
2023/01/11 01:37:14;;;;;;;;;;;10.20;99.90;;;;;;2029643;29;19911;-70
2023/01/11 01:38:15;;;;;;;;;;;10.20;99.90;;;;;;2028250;29;20308;-70
2023/01/11 01:39:16;;;;;;;;;;;10.20;99.90;;;;;;2025022;29;19966;-70
2023/01/11 01:40:16;;;;;;;;;;;10.20;99.90;;;;;;2026591;29;19955;-70
2023/01/11 01:41:16;;;;;;;;;;;10.20;99.90;;;;;;2026450;29;20050;-70
2023/01/11 01:42:18;;;;;;;;;;;10.20;99.90;;;;;;2026492;29;19926;-70
2023/01/11 01:43:18;;;;;;;;;;;10.20;99.90;;;;;;2026671;29;19911;-70
2023/01/11 01:44:37;;;;;;;;;;;10.20;99.90;;;;;;2026420;29;19911;-70
2023/01/11 01:45:40;;;;;;;;;;;10.20;99.90;;;;;;2026028;29;19907;-70
2023/01/11 01:46:40;;;;;;;;;;;10.20;99.90;;;;;;2027175;29;19918;-70
2023/01/11 01:47:56;;;;;;;;;;;10.20;99.90;;;;;;2027429;29;20734;-70
2023/01/11 01:48:59;;;;;;;;;;;10.20;99.90;;;;;;2030987;29;19911;-70
2023/01/11 01:50:01;;;;;;;;;;;10.20;99.90;;;;;;2031740;29;19919;-70
2023/01/11 01:51:03;;;;;;;;;;;10.20;99.90;;;;;;2024584;29;20264;-70
2023/01/11 01:52:04;;;;;;;;;;;10.30;99.90;;;;;;2024262;29;21101;-70
2023/01/11 01:53:08;;;;;;;;;;;10.30;99.90;;;;;;2025870;29;20354;-70
2023/01/11 01:54:11;;;;;;;;;;;10.30;99.90;;;;;;2025173;29;19914;-70
2023/01/11 01:55:15;;;;;;;;;;;10.30;99.90;;;;;;2026327;29;19940;-70
2023/01/11 01:56:19;;;;;;;;;;;10.30;99.90;;;;;;2026624;29;19907;-70
2023/01/11 01:57:21;;;;;;;;;;;10.30;99.90;;;;;;2025868;29;20000;-70
2023/01/11 01:58:25;;;;;;;;;;;10.30;99.90;;;;;;2025693;29;19912;-70
2023/01/11 01:59:26;;;;;;;;;;;10.30;99.90;;;;;;2025714;29;20142;-70
2023/01/11 02:00:26;;;;;;;;;;;10.30;99.90;;;;;;2026372;29;19965;-71
2023/01/11 02:02:46;;;;;;;;;;;10.40;99.90;;;;;;2026453;29;19920;-71
2023/01/11 02:03:47;;;;;;;;;;;10.40;99.90;;;;;;2027212;29;19907;-71
2023/01/11 02:04:48;;;;;;;;;;;10.40;99.90;;;;;;2025667;29;19947;-71
2023/01/11 02:05:49;;;;;;;;;;;10.40;99.90;;;;;;2025072;29;19908;-71
2023/01/11 02:06:52;;;;;;;;;;;10.40;99.90;;;;;;2025533;29;21875;-71
2023/01/11 02:07:55;;;;;;;;;;;10.40;99.90;;;;;;2025774;29;19926;-71
2023/01/11 02:08:59;;;;;;;;;;;10.40;99.90;;;;;;2023206;29;19919;-71
2023/01/11 02:10:03;;;;;;;;;;;10.40;99.90;;;;;;2026052;29;19918;-71
2023/01/11 02:11:28;;;;;;;;;;;10.40;99.90;;;;;;2023404;29;19912;-71
2023/01/11 02:12:26;;;;;;;;;;;10.40;99.90;;;;;;2025486;29;20003;-71
2023/01/11 02:13:27;;;;;;;;;;;10.40;99.90;;;;;;2026581;29;19935;-71
2023/01/11 02:14:29;;;;;;;;;;;10.40;99.90;;;;;;2024619;29;19911;-71
2023/01/11 02:15:30;;;;;;;;;;;10.50;99.90;;;;;;2024401;29;19915;-71
2023/01/11 02:16:31;;;;;;;;;;;10.40;99.90;;;;;;2025323;29;19974;-71
2023/01/11 02:17:31;;;;;;;;;;;10.50;99.90;;;;;;2024963;29;19971;-71
2023/01/11 02:18:32;;;;;;;;;;;10.50;99.90;;;;;;2023771;29;19911;-71
2023/01/11 02:19:50;;;;;;;;;;;10.50;99.90;;;;;;2026599;29;19918;-71
2023/01/11 02:21:07;;;;;;;;;;;10.40;99.90;;;;;;2024929;29;20362;-71
2023/01/11 02:22:08;;;;;;;;;;;10.50;99.90;;;;;;2023647;29;20021;-71
2023/01/11 02:23:08;;;;;;;;;;;10.50;99.90;;;;;;2025236;29;19918;-71
2023/01/11 02:24:09;;;;;;;;;;;10.50;99.90;;;;;;2024470;29;19911;-71
2023/01/11 02:25:27;;;;;;;;;;;10.50;99.90;;;;;;2026721;29;19911;-71
2023/01/11 02:26:31;;;;;;;;;;;10.50;99.90;;;;;;2025248;29;20272;-71
2023/01/11 02:27:43;;;;;;;;;;;10.50;99.90;;;;;;2026053;29;19919;-71
2023/01/11 02:28:54;;;;;;;;;;;10.50;99.90;;;;;;2027118;29;19915;-71
2023/01/11 02:29:59;;;;;;;;;;;10.50;99.90;;;;;;2023775;29;19915;-71
2023/01/11 02:31:05;;;;;;;;;;;10.50;99.90;;;;;;2025910;29;19915;-71
2023/01/11 02:32:06;;;;;;;;;;;10.50;99.90;;;;;;2026500;29;19950;-71
2023/01/11 02:33:12;;;;;;;;;;;10.50;99.90;;;;;;2024129;29;19911;-71
2023/01/11 02:34:22;;;;;;;;;;;10.50;99.90;;;;;;2025831;29;20834;-71
2023/01/11 02:35:29;;;;;;;;;;;10.50;99.90;;;;;;2025212;29;20002;-71
2023/01/11 02:36:47;;;;;;;;;;;10.50;99.90;;;;;;2025900;29;19969;-71
2023/01/11 02:37:48;;;;;;;;;;;10.50;99.90;;;;;;2023106;29;20267;-71
2023/01/11 02:39:00;;;;;;;;;;;10.50;99.90;;;;;;2025606;29;20010;-71
2023/01/11 02:40:06;;;;;;;;;;;10.50;99.90;;;;;;2026510;29;19915;-71
2023/01/11 02:41:22;;;;;;;;;;;10.50;99.90;;;;;;2026488;29;19914;-71
2023/01/11 02:45:34;;;;;;;;;;;10.50;99.90;;;;;;2025413;29;19915;-71
2023/01/11 02:46:43;;;;;;;;;;;10.50;99.90;;;;;;2024970;29;19915;-71
2023/01/11 02:47:43;;;;;;;;;;;10.50;99.90;;;;;;2024730;29;19911;-71
2023/01/11 02:49:02;;;;;;;;;;;10.50;99.90;;;;;;2025571;29;19951;-71
2023/01/11 02:50:21;;;;;;;;;;;10.50;99.90;;;;;;2025357;29;19915;-72
2023/01/11 02:51:24;;;;;;;;;;;10.50;99.90;;;;;;2025310;29;20351;-71
2023/01/11 02:52:43;;;;;;;;;;;10.40;99.90;;;;;;2027131;29;19919;-71
2023/01/11 02:53:46;;;;;;;;;;;10.50;99.90;;;;;;2025509;29;19943;-71
2023/01/11 02:54:52;;;;;;;;;;;10.50;99.90;;;;;;2026751;29;19911;-71
2023/01/11 02:55:55;;;;;;;;;;;10.40;99.90;;;;;;2025029;29;19918;-71
2023/01/11 02:56:59;;;;;;;;;;;10.40;99.90;;;;;;2024493;29;19915;-71
2023/01/11 02:58:00;;;;;;;;;;;10.50;99.90;;;;;;2024097;29;19951;-71
2023/01/11 02:59:01;;;;;;;;;;;10.40;99.90;;;;;;2025586;29;20283;-71
2023/01/11 03:00:02;;;;;;;;;;;10.40;99.90;;;;;;2025021;29;19915;-71
2023/01/11 03:01:02;;;;;;;;;;;10.40;99.90;;;;;;2025669;29;19911;-71
2023/01/11 03:02:04;;;;;;;;;;;10.40;99.90;;;;;;2024351;29;19938;-72
2023/01/11 03:03:05;;;;;;;;;;;10.40;99.90;;;;;;2025278;29;19910;-71
2023/01/11 03:04:20;;;;;;;;;;;10.40;99.90;;;;;;2025471;29;19926;-71
2023/01/11 03:05:21;;;;;;;;;;;10.40;99.90;;;;;;2024222;29;19911;-71
2023/01/11 03:06:24;;;;;;;;;;;10.50;99.90;;;;;;2024982;29;20002;-71
2023/01/11 03:07:25;;;;;;;;;;;10.40;99.90;;;;;;2024021;29;19919;-71
2023/01/11 03:08:31;;;;;;;;;;;10.40;99.90;;;;;;2026156;29;20432;-71
2023/01/11 03:09:32;;;;;;;;;;;10.40;99.90;;;;;;2024531;29;19922;-71
2023/01/11 03:10:32;;;;;;;;;;;10.40;99.90;;;;;;2025922;29;19918;-71
2023/01/11 03:13:22;;;;;;;;;;;10.50;99.90;;;;;;2024238;29;19912;-71
2023/01/11 03:14:34;;;;;;;;;;;10.50;99.90;;;;;;2025548;29;20306;-71
2023/01/11 03:15:47;;;;;;;;;;;10.50;99.90;;;;;;2024680;29;19911;-71
2023/01/11 03:16:53;;;;;;;;;;;10.50;99.90;;;;;;2025929;29;20029;-71
2023/01/11 03:17:54;;;;;;;;;;;10.40;99.90;;;;;;2024990;29;19908;-71
2023/01/11 03:18:57;;;;;;;;;;;10.50;99.90;;;;;;2023917;29;19919;-71
2023/01/11 03:20:06;;;;;;;;;;;10.50;99.90;;;;;;2024964;29;20006;-71
2023/01/11 03:21:22;;;;;;;;;;;10.50;99.90;;;;;;2023785;29;19940;-71
2023/01/11 03:22:22;;;;;;;;;;;10.40;99.90;;;;;;2024383;29;19974;-71
2023/01/11 03:23:28;;;;;;;;;;;10.50;99.90;;;;;;2026838;29;19911;-71
2023/01/11 03:24:38;;;;;;;;;;;10.50;99.90;;;;;;2027633;29;19915;-71
2023/01/11 03:25:44;;;;;;;;;;;10.50;99.90;;;;;;2024458;29;19915;-71
2023/01/11 03:26:44;;;;;;;;;;;10.40;99.90;;;;;;2025562;29;19915;-71
2023/01/11 03:27:58;;;;;;;;;;;10.50;99.90;;;;;;2025657;29;19916;-71
2023/01/11 03:29:07;;;;;;;;;;;10.50;99.90;;;;;;2023976;29;19926;-71
2023/01/11 03:30:10;;;;;;;;;;;10.40;99.90;;;;;;2024690;29;20312;-71
2023/01/11 03:31:16;;;;;;;;;;;10.40;99.90;;;;;;2025486;29;19908;-71
2023/01/11 03:32:22;;;;;;;;;;;10.40;99.90;;;;;;2025891;29;20463;-71
2023/01/11 03:33:33;;;;;;;;;;;10.40;99.90;;;;;;2025754;29;19959;-71
2023/01/11 03:34:43;;;;;;;;;;;10.40;99.90;;;;;;2023991;29;20010;-71
2023/01/11 03:35:57;;;;;;;;;;;10.50;99.90;;;;;;2023936;29;19911;-71
2023/01/11 03:36:59;;;;;;;;;;;10.50;99.90;;;;;;2024467;29;20014;-71
2023/01/11 03:38:01;;;;;;;;;;;10.50;99.90;;;;;;2025124;29;19923;-71
2023/01/11 03:39:02;;;;;;;;;;;10.50;99.90;;;;;;2022436;29;19990;-72
2023/01/11 03:40:08;;;;;;;;;;;10.50;99.90;;;;;;2025559;29;19915;-72
2023/01/11 03:41:12;;;;;;;;;;;10.50;99.90;;;;;;2025520;29;19987;-71
2023/01/11 03:42:15;;;;;;;;;;;10.50;99.90;;;;;;2025449;29;19998;-71
2023/01/11 03:43:17;;;;;;;;;;;10.50;99.90;;;;;;2023731;29;19915;-71
2023/01/11 03:44:18;;;;;;;;;;;10.50;99.90;;;;;;2025166;29;20123;-71
2023/01/11 03:45:19;;;;;;;;;;;10.50;99.90;;;;;;2024900;29;19911;-71
2023/01/11 03:46:22;;;;;;;;;;;10.50;99.90;;;;;;2025881;29;19911;-72
2023/01/11 03:47:24;;;;;;;;;;;10.50;99.90;;;;;;2024981;29;19920;-72
2023/01/11 03:48:28;;;;;;;;;;;10.50;99.90;;;;;;2027886;29;20264;-72
2023/01/11 03:49:44;;;;;;;;;;;10.50;99.90;;;;;;2024483;29;19921;-72
2023/01/11 03:50:46;;;;;;;;;;;10.50;99.90;;;;;;2024774;29;20400;-72
2023/01/11 03:51:47;;;;;;;;;;;10.50;99.90;;;;;;2024256;29;19919;-72
2023/01/11 03:52:49;;;;;;;;;;;10.50;99.90;;;;;;2024887;29;19911;-72
2023/01/11 03:53:50;;;;;;;;;;;10.50;99.90;;;;;;2025052;29;19922;-71
2023/01/11 03:54:51;;;;;;;;;;;10.60;99.90;;;;;;2026128;29;19915;-72
2023/01/11 03:55:54;;;;;;;;;;;10.50;99.90;;;;;;2024506;29;19911;-72
2023/01/11 03:57:15;;;;;;;;;;;10.50;99.90;;;;;;2025896;29;19908;-72
2023/01/11 03:58:15;;;;;;;;;;;10.50;99.90;;;;;;2025916;29;19911;-72
2023/01/11 03:59:16;;;;;;;;;;;10.50;99.90;;;;;;2023386;29;20002;-72
2023/01/11 04:00:20;;;;;;;;;;;10.50;99.90;;;;;;2024625;29;20018;-72
2023/01/11 04:01:20;;;;;;;;;;;10.60;99.90;;;;;;2024477;29;20014;-72
2023/01/11 04:02:24;;;;;;;;;;;10.60;99.90;;;;;;2027086;29;19911;-72
2023/01/11 04:03:24;;;;;;;;;;;10.60;99.90;;;;;;2024039;29;20373;-72
2023/01/11 04:04:28;;;;;;;;;;;10.60;99.90;;;;;;2027011;29;20316;-72
2023/01/11 04:05:28;;;;;;;;;;;10.60;99.90;;;;;;2030079;29;19915;-72
2023/01/11 04:06:31;;;;;;;;;;;10.60;99.90;;;;;;2030733;29;19950;-72
2023/01/11 04:07:31;;;;;;;;;;;10.60;99.90;;;;;;2024249;29;20001;-72
2023/01/11 04:08:32;;;;;;;;;;;10.60;99.90;;;;;;2025307;29;19907;-72
2023/01/11 04:09:32;;;;;;;;;;;10.60;99.90;;;;;;2024047;29;19915;-72
2023/01/11 04:10:32;;;;;;;;;;;10.60;99.90;;;;;;2025427;29;19914;-72
2023/01/11 04:11:33;;;;;;;;;;;10.60;99.90;;;;;;2024829;29;19963;-72
2023/01/11 04:12:33;;;;;;;;;;;10.60;99.90;;;;;;2024396;29;19986;-72
2023/01/11 04:13:34;;;;;;;;;;;10.60;99.90;;;;;;2025056;29;19915;-72
2023/01/11 04:14:34;;;;;;;;;;;10.60;99.90;;;;;;2026364;29;19995;-72
2023/01/11 04:15:35;;;;;;;;;;;10.60;99.90;;;;;;2024459;29;20002;-72
2023/01/11 04:16:35;;;;;;;;;;;10.60;99.90;;;;;;2024683;29;20316;-72
2023/01/11 04:17:36;;;;;;;;;;;10.60;99.90;;;;;;2024712;29;19919;-72
2023/01/11 04:18:36;;;;;;;;;;;10.60;99.90;;;;;;2026161;29;19912;-72
2023/01/11 04:19:37;;;;;;;;;;;10.70;99.90;;;;;;2023756;29;19926;-72
2023/01/11 04:20:39;;;;;;;;;;;10.70;99.90;;;;;;2025523;29;20006;-72
2023/01/11 04:21:39;;;;;;;;;;;10.70;99.90;;;;;;2025727;29;20650;-72
2023/01/11 04:22:40;;;;;;;;;;;10.70;99.90;;;;;;2026115;29;20566;-72
2023/01/11 04:23:40;;;;;;;;;;;10.70;99.90;;;;;;2023599;29;20274;-72
2023/01/11 04:24:41;;;;;;;;;;;10.70;99.90;;;;;;2024694;29;19908;-72
2023/01/11 04:25:41;;;;;;;;;;;10.70;99.90;;;;;;2024800;29;19921;-72
2023/01/11 04:26:42;;;;;;;;;;;10.70;99.90;;;;;;2024089;29;19911;-72
2023/01/11 04:27:42;;;;;;;;;;;10.70;99.90;;;;;;2023096;29;19919;-72
2023/01/11 04:28:43;;;;;;;;;;;10.70;99.90;;;;;;2025711;29;19916;-72
2023/01/11 04:29:43;;;;;;;;;;;10.70;99.90;;;;;;2024702;29;19967;-72
2023/01/11 04:30:44;;;;;;;;;;;10.70;99.90;;;;;;2024855;29;19998;-72
2023/01/11 04:31:44;;;;;;;;;;;10.70;99.90;;;;;;2026179;29;19915;-72
2023/01/11 04:32:45;;;;;;;;;;;10.70;99.90;;;;;;2026596;29;19911;-72
2023/01/11 04:33:45;;;;;;;;;;;10.70;99.90;;;;;;2023781;29;19938;-72
2023/01/11 04:34:45;;;;;;;;;;;10.70;99.90;;;;;;2026035;29;20327;-72
2023/01/11 04:35:46;;;;;;;;;;;10.80;99.90;;;;;;2029977;29;19935;-72
2023/01/11 04:36:47;;;;;;;;;;;10.80;99.90;;;;;;2031094;29;19911;-72
2023/01/11 04:37:49;;;;;;;;;;;10.80;99.90;;;;;;2023959;29;19911;-72
2023/01/11 04:38:50;;;;;;;;;;;10.80;99.90;;;;;;2024140;29;19911;-72
2023/01/11 04:39:50;;;;;;;;;;;10.80;99.90;;;;;;2023178;29;19918;-72
2023/01/11 04:42:17;;;;;;;;;;;10.80;99.90;;;;;;2024151;29;19919;-72
2023/01/11 04:42:17;;;;;;;;;;;10.80;99.90;;;;;;2027782;29;20009;-72
2023/01/11 04:43:18;;;;;;;;;;;10.80;99.90;;;;;;2024453;29;19907;-72
2023/01/11 04:44:18;;;;;;;;;;;10.80;99.90;;;;;;2024910;29;19911;-72
2023/01/11 04:45:19;;;;;;;;;;;10.80;99.90;;;;;;2023270;29;19915;-72
2023/01/11 04:46:19;;;;;;;;;;;10.80;99.90;;;;;;2024077;29;19918;-72
2023/01/11 04:47:21;;;;;;;;;;;10.80;99.90;;;;;;2024709;29;19915;-72
2023/01/11 04:48:21;;;;;;;;;;;10.80;99.90;;;;;;2023474;29;20009;-72
2023/01/11 04:49:22;;;;;;;;;;;10.80;99.90;;;;;;2024368;29;19931;-72
2023/01/11 04:50:23;;;;;;;;;;;10.80;99.90;;;;;;2024422;29;19962;-72
2023/01/11 04:51:23;;;;;;;;;;;10.80;99.90;;;;;;2025067;29;20271;-72
2023/01/11 04:52:24;;;;;;;;;;;10.90;99.90;;;;;;2025156;29;19911;-72
2023/01/11 04:53:24;;;;;;;;;;;10.90;99.90;;;;;;2024234;29;19916;-72
2023/01/11 04:54:25;;;;;;;;;;;10.90;99.90;;;;;;2023762;29;19918;-72
2023/01/11 04:55:25;;;;;;;;;;;10.90;99.90;;;;;;2025089;29;20402;-72
2023/01/11 04:56:26;;;;;;;;;;;10.90;99.90;;;;;;2024112;29;20600;-72
2023/01/11 04:57:26;;;;;;;;;;;10.90;99.90;;;;;;2023084;29;19958;-72
2023/01/11 04:58:32;;;;;;;;;;;10.90;99.90;;;;;;2024268;29;19919;-72
2023/01/11 04:59:32;;;;;;;;;;;10.90;99.90;;;;;;2022567;29;21031;-72
2023/01/11 05:00:33;;;;;;;;;;;10.90;99.90;;;;;;2024661;29;20489;-72
2023/01/11 05:01:33;;;;;;;;;;;10.90;99.90;;;;;;2023804;29;19919;-72
2023/01/11 05:02:34;;;;;;;;;;;10.90;99.90;;;;;;2025376;29;19978;-72
2023/01/11 05:03:34;;;;;;;;;;;10.90;99.90;;;;;;2025690;29;19912;-72
2023/01/11 05:04:35;;;;;;;;;;;10.90;99.90;;;;;;2024438;29;19911;-72
2023/01/11 05:05:35;;;;;;;;;;;10.90;99.90;;;;;;2024113;29;19971;-72
2023/01/11 05:06:35;;;;;;;;;;;11.00;99.90;;;;;;2026098;29;20466;-72
2023/01/11 05:07:37;;;;;;;;;;;11.00;99.90;;;;;;2025445;29;19952;-72
2023/01/11 05:08:38;;;;;;;;;;;11.00;99.90;;;;;;2024935;29;20696;-72
2023/01/11 05:09:39;;;;;;;;;;;11.00;99.90;;;;;;2024867;29;20433;-72
2023/01/11 05:10:40;;;;;;;;;;;11.00;99.90;;;;;;2024092;29;19978;-72
2023/01/11 05:11:40;;;;;;;;;;;11.00;99.90;;;;;;2027201;29;19914;-72
2023/01/11 05:12:41;;;;;;;;;;;11.00;99.90;;;;;;2025190;29;19915;-72
2023/01/11 05:13:41;;;;;;;;;;;11.00;99.90;;;;;;2026750;29;19997;-72
2023/01/11 05:14:42;;;;;;;;;;;11.00;99.90;;;;;;2027700;29;19937;-72
2023/01/11 05:15:42;;;;;;;;;;;11.00;99.90;;;;;;2021740;29;20003;-72
2023/01/11 05:16:43;;;;;;;;;;;11.00;99.90;;;;;;2023838;29;20054;-73
2023/01/11 05:17:43;;;;;;;;;;;11.00;99.90;;;;;;2023164;29;19907;-72
2023/01/11 05:18:45;;;;;;;;;;;11.00;99.90;;;;;;2024375;29;19919;-72
2023/01/11 05:19:45;;;;;;;;;;;11.00;99.90;;;;;;2026701;29;19920;-72
2023/01/11 05:20:47;;;;;;;;;;;11.00;99.90;;;;;;2023547;29;19915;-72
2023/01/11 05:21:48;;;;;;;;;;;11.00;99.90;;;;;;2023882;29;19915;-72
2023/01/11 05:22:48;;;;;;;;;;;11.00;99.90;;;;;;2025882;29;19935;-72
2023/01/11 05:23:49;;;;;;;;;;;11.00;99.90;;;;;;2024573;29;20407;-72
2023/01/11 05:24:49;;;;;;;;;;;11.00;99.90;;;;;;2024476;29;20013;-72
2023/01/11 05:25:50;;;;;;;;;;;11.00;99.90;;;;;;2022681;29;19915;-72
2023/01/11 05:26:52;;;;;;;;;;;11.00;99.90;;;;;;2023351;29;19958;-72
2023/01/11 05:27:52;;;;;;;;;;;11.10;99.90;;;;;;2023192;29;20414;-72
2023/01/11 05:28:53;;;;;;;;;;;11.10;99.90;;;;;;2024318;29;20356;-72
2023/01/11 05:29:54;;;;;;;;;;;11.10;99.90;;;;;;2021826;29;19915;-72
2023/01/11 05:30:54;;;;;;;;;;;11.10;99.90;;;;;;2024474;29;19966;-72
2023/01/11 05:31:55;;;;;;;;;;;11.10;99.90;;;;;;2023146;29;19935;-72
2023/01/11 05:32:55;;;;;;;;;;;11.10;99.90;;;;;;2022689;29;19922;-72
2023/01/11 05:33:56;;;;;;;;;;;11.10;99.90;;;;;;2021634;29;19951;-72
2023/01/11 05:34:57;;;;;;;;;;;11.10;99.90;;;;;;2022457;29;20348;-72
2023/01/11 05:36:01;;;;;;;;;;;11.10;99.90;;;;;;2023444;29;20275;-72
2023/01/11 05:37:02;;;;;;;;;;;11.10;99.90;;;;;;2024381;29;19927;-72
2023/01/11 05:38:02;;;;;;;;;;;11.10;99.90;;;;;;2022952;29;19951;-72
2023/01/11 05:39:03;;;;;;;;;;;11.10;99.90;;;;;;2025141;29;19947;-72
2023/01/11 05:40:07;;;;;;;;;;;11.10;99.90;;;;;;2021590;29;19919;-72
2023/01/11 05:41:08;;;;;;;;;;;11.10;99.90;;;;;;2024624;29;20248;-72
2023/01/11 05:42:09;;;;;;;;;;;11.10;99.90;;;;;;2024901;29;19918;-72
2023/01/11 05:43:09;;;;;;;;;;;11.10;99.90;;;;;;2024122;29;19912;-72
2023/01/11 05:45:34;;;;;;;;;;;11.10;99.90;;;;;;2024447;29;20517;-72
2023/01/11 05:46:35;;;;;;;;;;;11.10;99.90;;;;;;2023477;29;20556;-72
2023/01/11 05:47:36;;;;;;;;;;;11.20;99.90;;;;;;2022872;29;20279;-72
2023/01/11 05:48:36;;;;;;;;;;;11.10;99.90;;;;;;2023205;29;19911;-72
2023/01/11 05:49:37;;;;;;;;;;;11.10;99.90;;;;;;2024200;29;19911;-72
2023/01/11 05:50:37;;;;;;;;;;;11.20;99.90;;;;;;2023983;29;19975;-72
2023/01/11 05:51:38;;;;;;;;;;;11.20;99.90;;;;;;2023082;29;19966;-72
2023/01/11 05:52:38;;;;;;;;;;;11.10;99.90;;;;;;2024664;29;20001;-72
2023/01/11 05:53:38;;;;;;;;;;;11.20;99.90;;;;;;2026585;29;20379;-72
2023/01/11 05:54:39;;;;;;;;;;;11.20;99.90;;;;;;2023535;29;19911;-72
2023/01/11 05:55:50;;;;;;;;;;;11.20;99.90;;;;;;2024275;29;19918;-72
2023/01/11 05:56:50;;;;;;;;;;;11.20;99.90;;;;;;2023315;29;20007;-72
2023/01/11 05:57:51;;;;;;;;;;;11.10;99.90;;;;;;2025255;29;19939;-72
2023/01/11 05:58:51;;;;;;;;;;;11.20;99.90;;;;;;2023889;29;19935;-72
2023/01/11 05:59:51;;;;;;;;;;;11.20;99.90;;;;;;2025534;29;19922;-72
2023/01/11 06:00:53;;;;;;;;;;;11.20;99.90;;;;;;2025357;29;19916;-72
2023/01/11 06:01:54;;;;;;;;;;;11.20;99.90;;;;;;2024376;29;19919;-72
2023/01/11 06:02:54;;;;;;;;;;;11.20;99.90;;;;;;2025049;29;19912;-72
2023/01/11 06:03:54;;;;;;;;;;;11.20;99.90;;;;;;2026135;29;20359;-72
2023/01/11 06:04:55;;;;;;;;;;;11.20;99.90;;;;;;2025151;29;19962;-72
2023/01/11 06:05:57;;;;;;;;;;;11.20;99.90;;;;;;2025766;29;19911;-72
2023/01/11 06:06:57;;;;;;;;;;;11.20;99.90;;;;;;2026165;29;20031;-72
2023/01/11 06:07:58;;;;;;;;;;;11.20;99.90;;;;;;2026157;29;19939;-73
2023/01/11 06:08:58;;;;;;;;;;;11.20;99.90;;;;;;2024782;29;19913;-72
2023/01/11 06:09:58;;;;;;;;;;;11.20;99.90;;;;;;2026550;29;19907;-72
2023/01/11 06:10:59;;;;;;;;;;;11.30;99.90;;;;;;2026753;29;19946;-71
2023/01/11 06:11:59;;;;;;;;;;;11.30;99.90;;;;;;2024093;29;20624;-72
2023/01/11 06:14:19;;;;;;;;;;;11.30;99.90;;;;;;2025912;29;19911;-72
2023/01/11 06:15:20;;;;;;;;;;;11.30;99.90;;;;;;2025518;29;19907;-72
2023/01/11 06:16:21;;;;;;;;;;;11.30;99.90;;;;;;2025308;29;19919;-72
2023/01/11 06:17:21;;;;;;;;;;;11.30;99.90;;;;;;2025705;29;19911;-72
2023/01/11 06:18:22;;;;;;;;;;;11.30;99.90;;;;;;2022715;29;19919;-72
2023/01/11 06:19:22;;;;;;;;;;;11.30;99.90;;;;;;2022727;29;20564;-72
2023/01/11 06:20:22;;;;;;;;;;;11.30;99.90;;;;;;2023035;29;19911;-72